sensor_id;sensor_type;location;lat;lon;timestamp;temperature;humidity
11035;DHT22;5571;48.110;-1.706;2023-05-10T00:00:32;12.10;99.90
11035;DHT22;5571;48.110;-1.706;2023-05-10T00:02:58;12.10;99.90
11035;DHT22;5571;48.110;-1.706;2023-05-10T00:05:23;12.10;99.90
11035;DHT22;5571;48.110;-1.706;2023-05-10T00:07:49;12.10;99.90
11035;DHT22;5571;48.110;-1.706;2023-05-10T00:10:15;12.10;99.90
11035;DHT22;5571;48.110;-1.706;2023-05-10T00:12:40;12.10;99.90
11035;DHT22;5571;48.110;-1.706;2023-05-10T00:15:06;12.00;99.90
11035;DHT22;5571;48.110;-1.706;2023-05-10T00:17:32;11.90;99.90
11035;DHT22;5571;48.110;-1.706;2023-05-10T00:19:58;11.90;99.90
11035;DHT22;5571;48.110;-1.706;2023-05-10T00:22:23;11.90;99.90
11035;DHT22;5571;48.110;-1.706;2023-05-10T00:24:49;12.00;99.90
11035;DHT22;5571;48.110;-1.706;2023-05-10T00:27:15;11.90;99.90
11035;DHT22;5571;48.110;-1.706;2023-05-10T00:29:40;11.90;99.90
11035;DHT22;5571;48.110;-1.706;2023-05-10T00:32:06;11.90;99.90
11035;DHT22;5571;48.110;-1.706;2023-05-10T00:34:31;11.80;99.90
11035;DHT22;5571;48.110;-1.706;2023-05-10T00:36:57;11.80;99.90
11035;DHT22;5571;48.110;-1.706;2023-05-10T00:39:23;11.70;99.90
11035;DHT22;5571;48.110;-1.706;2023-05-10T00:41:48;11.70;99.90
11035;DHT22;5571;48.110;-1.706;2023-05-10T00:44:14;11.70;99.90
11035;DHT22;5571;48.110;-1.706;2023-05-10T00:46:40;11.70;99.90
11035;DHT22;5571;48.110;-1.706;2023-05-10T00:49:06;11.70;99.90
11035;DHT22;5571;48.110;-1.706;2023-05-10T00:51:32;11.60;99.90
11035;DHT22;5571;48.110;-1.706;2023-05-10T00:53:58;11.60;99.90
11035;DHT22;5571;48.110;-1.706;2023-05-10T00:56:24;11.70;99.90
11035;DHT22;5571;48.110;-1.706;2023-05-10T00:58:51;11.70;99.90
11035;DHT22;5571;48.110;-1.706;2023-05-10T01:01:16;11.70;99.90
11035;DHT22;5571;48.110;-1.706;2023-05-10T01:03:43;11.70;99.90
11035;DHT22;5571;48.110;-1.706;2023-05-10T01:06:08;11.70;99.90
11035;DHT22;5571;48.110;-1.706;2023-05-10T01:08:35;11.70;99.90
11035;DHT22;5571;48.110;-1.706;2023-05-10T01:11:01;11.70;99.90
11035;DHT22;5571;48.110;-1.706;2023-05-10T01:13:30;11.70;99.90
11035;DHT22;5571;48.110;-1.706;2023-05-10T01:15:58;11.70;99.90
11035;DHT22;5571;48.110;-1.706;2023-05-10T01:18:24;11.60;99.90
11035;DHT22;5571;48.110;-1.706;2023-05-10T01:34:38;11.60;99.90
11035;DHT22;5571;48.110;-1.706;2023-05-10T01:37:11;11.50;99.90
11035;DHT22;5571;48.110;-1.706;2023-05-10T01:42:33;11.50;99.90
11035;DHT22;5571;48.110;-1.706;2023-05-10T01:45:10;11.50;99.90
11035;DHT22;5571;48.110;-1.706;2023-05-10T01:47:41;11.50;99.90
11035;DHT22;5571;48.110;-1.706;2023-05-10T01:50:17;11.40;99.90
11035;DHT22;5571;48.110;-1.706;2023-05-10T01:52:47;11.40;99.90
11035;DHT22;5571;48.110;-1.706;2023-05-10T01:55:16;11.40;99.90
11035;DHT22;5571;48.110;-1.706;2023-05-10T01:57:44;11.40;99.90
11035;DHT22;5571;48.110;-1.706;2023-05-10T02:00:12;11.40;99.90
11035;DHT22;5571;48.110;-1.706;2023-05-10T02:02:40;11.40;99.90
11035;DHT22;5571;48.110;-1.706;2023-05-10T02:05:08;11.40;99.90
11035;DHT22;5571;48.110;-1.706;2023-05-10T02:07:36;11.40;99.90
11035;DHT22;5571;48.110;-1.706;2023-05-10T02:10:06;11.40;99.90
11035;DHT22;5571;48.110;-1.706;2023-05-10T02:12:37;11.40;99.90
11035;DHT22;5571;48.110;-1.706;2023-05-10T02:15:05;11.40;99.90
11035;DHT22;5571;48.110;-1.706;2023-05-10T02:17:32;11.40;99.90
11035;DHT22;5571;48.110;-1.706;2023-05-10T02:20:01;11.40;99.90
11035;DHT22;5571;48.110;-1.706;2023-05-10T02:22:27;11.40;99.90
11035;DHT22;5571;48.110;-1.706;2023-05-10T02:24:58;11.40;99.90
11035;DHT22;5571;48.110;-1.706;2023-05-10T02:27:27;11.40;99.90
11035;DHT22;5571;48.110;-1.706;2023-05-10T02:29:53;11.40;99.90
11035;DHT22;5571;48.110;-1.706;2023-05-10T02:32:21;11.30;99.90
11035;DHT22;5571;48.110;-1.706;2023-05-10T02:34:48;11.30;99.90
11035;DHT22;5571;48.110;-1.706;2023-05-10T02:37:19;11.30;99.90
11035;DHT22;5571;48.110;-1.706;2023-05-10T02:39:53;11.20;99.90
11035;DHT22;5571;48.110;-1.706;2023-05-10T02:42:24;11.20;99.90
11035;DHT22;5571;48.110;-1.706;2023-05-10T02:44:52;11.20;99.90
11035;DHT22;5571;48.110;-1.706;2023-05-10T02:47:18;11.20;99.90
11035;DHT22;5571;48.110;-1.706;2023-05-10T02:49:44;11.20;99.90
11035;DHT22;5571;48.110;-1.706;2023-05-10T02:52:15;11.20;99.90
11035;DHT22;5571;48.110;-1.706;2023-05-10T02:54:45;11.10;99.90
11035;DHT22;5571;48.110;-1.706;2023-05-10T02:57:22;11.10;99.90
11035;DHT22;5571;48.110;-1.706;2023-05-10T02:59:50;11.20;99.90
11035;DHT22;5571;48.110;-1.706;2023-05-10T03:02:16;11.20;99.90
11035;DHT22;5571;48.110;-1.706;2023-05-10T03:04:42;11.20;99.90
11035;DHT22;5571;48.110;-1.706;2023-05-10T03:07:08;11.10;99.90
11035;DHT22;5571;48.110;-1.706;2023-05-10T03:09:34;11.10;99.90
11035;DHT22;5571;48.110;-1.706;2023-05-10T03:14:53;11.10;99.90
11035;DHT22;5571;48.110;-1.706;2023-05-10T03:17:29;11.10;99.90
11035;DHT22;5571;48.110;-1.706;2023-05-10T03:19:58;11.10;99.90
11035;DHT22;5571;48.110;-1.706;2023-05-10T03:22:32;11.20;99.90
11035;DHT22;5571;48.110;-1.706;2023-05-10T03:24:59;11.20;99.90
11035;DHT22;5571;48.110;-1.706;2023-05-10T03:27:26;11.10;99.90
11035;DHT22;5571;48.110;-1.706;2023-05-10T03:29:54;11.10;99.90
11035;DHT22;5571;48.110;-1.706;2023-05-10T03:32:20;11.10;99.90
11035;DHT22;5571;48.110;-1.706;2023-05-10T03:34:46;11.20;99.90
11035;DHT22;5571;48.110;-1.706;2023-05-10T03:37:11;11.20;99.90
11035;DHT22;5571;48.110;-1.706;2023-05-10T03:39:37;11.20;99.90
11035;DHT22;5571;48.110;-1.706;2023-05-10T03:42:03;11.20;99.90
11035;DHT22;5571;48.110;-1.706;2023-05-10T03:44:28;11.20;99.90
11035;DHT22;5571;48.110;-1.706;2023-05-10T03:46:54;11.10;99.90
11035;DHT22;5571;48.110;-1.706;2023-05-10T03:49:20;11.10;99.90
11035;DHT22;5571;48.110;-1.706;2023-05-10T03:51:46;11.10;99.90
11035;DHT22;5571;48.110;-1.706;2023-05-10T03:54:11;11.10;99.90
11035;DHT22;5571;48.110;-1.706;2023-05-10T03:56:37;11.20;99.90
11035;DHT22;5571;48.110;-1.706;2023-05-10T03:59:03;11.20;99.90
11035;DHT22;5571;48.110;-1.706;2023-05-10T04:01:33;11.20;99.90
11035;DHT22;5571;48.110;-1.706;2023-05-10T04:03:59;11.30;99.90
11035;DHT22;5571;48.110;-1.706;2023-05-10T04:06:24;11.20;99.90
11035;DHT22;5571;48.110;-1.706;2023-05-10T04:08:50;11.30;99.90
11035;DHT22;5571;48.110;-1.706;2023-05-10T04:11:15;11.20;99.90
11035;DHT22;5571;48.110;-1.706;2023-05-10T04:13:41;11.30;99.90
11035;DHT22;5571;48.110;-1.706;2023-05-10T04:16:08;11.30;99.90
11035;DHT22;5571;48.110;-1.706;2023-05-10T04:18:34;11.30;99.90
11035;DHT22;5571;48.110;-1.706;2023-05-10T04:21:00;11.30;99.90
11035;DHT22;5571;48.110;-1.706;2023-05-10T04:23:26;11.30;99.90
11035;DHT22;5571;48.110;-1.706;2023-05-10T04:25:52;11.30;99.90
11035;DHT22;5571;48.110;-1.706;2023-05-10T04:28:17;11.30;99.90
11035;DHT22;5571;48.110;-1.706;2023-05-10T04:30:43;11.30;99.90
11035;DHT22;5571;48.110;-1.706;2023-05-10T04:33:09;11.40;99.90
11035;DHT22;5571;48.110;-1.706;2023-05-10T04:35:35;11.30;99.90
11035;DHT22;5571;48.110;-1.706;2023-05-10T04:38:00;11.40;99.90
11035;DHT22;5571;48.110;-1.706;2023-05-10T04:40:26;11.40;99.90
11035;DHT22;5571;48.110;-1.706;2023-05-10T04:42:51;11.40;99.90
11035;DHT22;5571;48.110;-1.706;2023-05-10T04:45:17;11.40;99.90
11035;DHT22;5571;48.110;-1.706;2023-05-10T04:47:43;11.40;99.90
11035;DHT22;5571;48.110;-1.706;2023-05-10T04:50:08;11.40;99.90
11035;DHT22;5571;48.110;-1.706;2023-05-10T04:52:34;11.40;99.90
11035;DHT22;5571;48.110;-1.706;2023-05-10T04:55:00;11.40;99.90
11035;DHT22;5571;48.110;-1.706;2023-05-10T04:57:25;11.40;99.90
11035;DHT22;5571;48.110;-1.706;2023-05-10T04:59:51;11.40;99.90
11035;DHT22;5571;48.110;-1.706;2023-05-10T05:02:17;11.50;99.90
11035;DHT22;5571;48.110;-1.706;2023-05-10T05:04:42;11.50;99.90
11035;DHT22;5571;48.110;-1.706;2023-05-10T05:07:08;11.50;99.90
11035;DHT22;5571;48.110;-1.706;2023-05-10T05:09:34;11.50;99.90
11035;DHT22;5571;48.110;-1.706;2023-05-10T05:11:59;11.50;99.90
11035;DHT22;5571;48.110;-1.706;2023-05-10T05:14:25;11.50;99.90
11035;DHT22;5571;48.110;-1.706;2023-05-10T05:16:52;11.50;99.90
11035;DHT22;5571;48.110;-1.706;2023-05-10T05:19:17;11.50;99.90
11035;DHT22;5571;48.110;-1.706;2023-05-10T05:21:43;11.50;99.90
11035;DHT22;5571;48.110;-1.706;2023-05-10T05:24:09;11.50;99.90
11035;DHT22;5571;48.110;-1.706;2023-05-10T05:26:35;11.60;99.90
11035;DHT22;5571;48.110;-1.706;2023-05-10T05:29:02;11.50;99.90
11035;DHT22;5571;48.110;-1.706;2023-05-10T05:31:28;11.60;99.90
11035;DHT22;5571;48.110;-1.706;2023-05-10T05:33:53;11.60;99.90
11035;DHT22;5571;48.110;-1.706;2023-05-10T05:36:19;11.60;99.90
11035;DHT22;5571;48.110;-1.706;2023-05-10T05:38:45;11.70;99.90
11035;DHT22;5571;48.110;-1.706;2023-05-10T05:41:10;11.60;99.90
11035;DHT22;5571;48.110;-1.706;2023-05-10T05:43:36;11.60;99.90
11035;DHT22;5571;48.110;-1.706;2023-05-10T05:46:01;11.60;99.90
11035;DHT22;5571;48.110;-1.706;2023-05-10T05:48:27;11.60;99.90
11035;DHT22;5571;48.110;-1.706;2023-05-10T05:50:55;11.70;99.90
11035;DHT22;5571;48.110;-1.706;2023-05-10T05:53:22;11.70;99.90
11035;DHT22;5571;48.110;-1.706;2023-05-10T05:55:55;11.70;99.90
11035;DHT22;5571;48.110;-1.706;2023-05-10T05:58:21;11.70;99.90
11035;DHT22;5571;48.110;-1.706;2023-05-10T06:00:47;11.70;99.90
11035;DHT22;5571;48.110;-1.706;2023-05-10T06:03:13;11.70;99.90
11035;DHT22;5571;48.110;-1.706;2023-05-10T06:05:39;11.70;99.90
11035;DHT22;5571;48.110;-1.706;2023-05-10T06:08:04;11.80;99.90
11035;DHT22;5571;48.110;-1.706;2023-05-10T06:10:30;11.80;99.90
11035;DHT22;5571;48.110;-1.706;2023-05-10T06:12:56;11.80;99.90
11035;DHT22;5571;48.110;-1.706;2023-05-10T06:15:21;11.80;99.90
11035;DHT22;5571;48.110;-1.706;2023-05-10T06:17:47;11.80;99.90
11035;DHT22;5571;48.110;-1.706;2023-05-10T06:20:15;11.90;99.90
11035;DHT22;5571;48.110;-1.706;2023-05-10T06:22:41;11.90;99.90
11035;DHT22;5571;48.110;-1.706;2023-05-10T06:25:07;11.80;99.90
11035;DHT22;5571;48.110;-1.706;2023-05-10T06:27:33;11.80;99.90
11035;DHT22;5571;48.110;-1.706;2023-05-10T06:29:59;11.90;99.90
11035;DHT22;5571;48.110;-1.706;2023-05-10T06:32:24;11.90;99.90
11035;DHT22;5571;48.110;-1.706;2023-05-10T06:34:50;11.90;99.90
11035;DHT22;5571;48.110;-1.706;2023-05-10T06:37:16;11.90;99.90
11035;DHT22;5571;48.110;-1.706;2023-05-10T06:39:42;11.90;99.90
11035;DHT22;5571;48.110;-1.706;2023-05-10T06:42:07;12.00;99.90
11035;DHT22;5571;48.110;-1.706;2023-05-10T06:44:33;12.10;99.90
11035;DHT22;5571;48.110;-1.706;2023-05-10T06:46:58;12.10;99.90
11035;DHT22;5571;48.110;-1.706;2023-05-10T06:49:24;12.20;99.90
11035;DHT22;5571;48.110;-1.706;2023-05-10T06:51:50;12.20;99.90
11035;DHT22;5571;48.110;-1.706;2023-05-10T06:54:15;12.30;99.90
11035;DHT22;5571;48.110;-1.706;2023-05-10T06:56:41;12.40;99.90
11035;DHT22;5571;48.110;-1.706;2023-05-10T06:59:06;12.50;99.90
11035;DHT22;5571;48.110;-1.706;2023-05-10T07:01:32;12.50;99.90
11035;DHT22;5571;48.110;-1.706;2023-05-10T07:03:58;12.60;99.90
11035;DHT22;5571;48.110;-1.706;2023-05-10T07:06:23;12.60;99.90
11035;DHT22;5571;48.110;-1.706;2023-05-10T07:08:49;12.70;99.90
11035;DHT22;5571;48.110;-1.706;2023-05-10T07:11:15;12.80;99.90
11035;DHT22;5571;48.110;-1.706;2023-05-10T07:13:40;12.80;99.90
11035;DHT22;5571;48.110;-1.706;2023-05-10T07:16:10;13.00;99.90
11035;DHT22;5571;48.110;-1.706;2023-05-10T07:18:35;13.00;99.90
11035;DHT22;5571;48.110;-1.706;2023-05-10T07:21:01;13.10;99.90
11035;DHT22;5571;48.110;-1.706;2023-05-10T07:23:27;13.10;99.90
11035;DHT22;5571;48.110;-1.706;2023-05-10T07:25:53;13.20;99.90
11035;DHT22;5571;48.110;-1.706;2023-05-10T07:28:19;13.20;99.90
11035;DHT22;5571;48.110;-1.706;2023-05-10T07:30:45;13.30;99.90
11035;DHT22;5571;48.110;-1.706;2023-05-10T07:33:13;13.30;99.90
11035;DHT22;5571;48.110;-1.706;2023-05-10T07:35:39;13.20;99.90
11035;DHT22;5571;48.110;-1.706;2023-05-10T07:38:05;13.20;99.90
11035;DHT22;5571;48.110;-1.706;2023-05-10T07:40:31;13.20;99.90
11035;DHT22;5571;48.110;-1.706;2023-05-10T07:42:57;13.20;99.90
11035;DHT22;5571;48.110;-1.706;2023-05-10T07:45:23;13.20;99.90
11035;DHT22;5571;48.110;-1.706;2023-05-10T07:47:49;13.10;99.90
11035;DHT22;5571;48.110;-1.706;2023-05-10T07:50:15;13.10;99.90
11035;DHT22;5571;48.110;-1.706;2023-05-10T07:52:41;13.20;99.90
11035;DHT22;5571;48.110;-1.706;2023-05-10T07:55:07;13.20;99.90
11035;DHT22;5571;48.110;-1.706;2023-05-10T07:57:34;13.10;99.90
11035;DHT22;5571;48.110;-1.706;2023-05-10T07:59:59;13.10;99.90
11035;DHT22;5571;48.110;-1.706;2023-05-10T08:02:25;13.00;99.90
11035;DHT22;5571;48.110;-1.706;2023-05-10T08:04:50;13.00;99.90
11035;DHT22;5571;48.110;-1.706;2023-05-10T08:07:17;13.00;99.90
11035;DHT22;5571;48.110;-1.706;2023-05-10T08:09:42;13.00;99.90
11035;DHT22;5571;48.110;-1.706;2023-05-10T08:12:08;13.00;99.90
11035;DHT22;5571;48.110;-1.706;2023-05-10T08:14:34;13.00;99.90
11035;DHT22;5571;48.110;-1.706;2023-05-10T08:17:02;13.00;99.90
11035;DHT22;5571;48.110;-1.706;2023-05-10T08:19:28;13.00;99.90
11035;DHT22;5571;48.110;-1.706;2023-05-10T08:21:54;13.10;99.90
11035;DHT22;5571;48.110;-1.706;2023-05-10T08:24:21;13.20;99.90
11035;DHT22;5571;48.110;-1.706;2023-05-10T08:26:47;13.20;99.90
11035;DHT22;5571;48.110;-1.706;2023-05-10T08:29:13;13.30;99.90
11035;DHT22;5571;48.110;-1.706;2023-05-10T08:31:39;13.30;99.90
11035;DHT22;5571;48.110;-1.706;2023-05-10T08:34:04;13.40;99.90
11035;DHT22;5571;48.110;-1.706;2023-05-10T08:36:30;13.40;99.90
11035;DHT22;5571;48.110;-1.706;2023-05-10T08:38:57;13.50;99.90
11035;DHT22;5571;48.110;-1.706;2023-05-10T08:41:24;13.70;99.90
11035;DHT22;5571;48.110;-1.706;2023-05-10T08:43:51;13.80;99.90
11035;DHT22;5571;48.110;-1.706;2023-05-10T08:46:18;13.90;99.90
11035;DHT22;5571;48.110;-1.706;2023-05-10T08:48:45;14.00;99.90
11035;DHT22;5571;48.110;-1.706;2023-05-10T08:51:19;14.10;99.90
11035;DHT22;5571;48.110;-1.706;2023-05-10T08:53:47;14.20;99.90
11035;DHT22;5571;48.110;-1.706;2023-05-10T08:56:13;14.30;99.90
11035;DHT22;5571;48.110;-1.706;2023-05-10T08:58:41;14.30;99.90
11035;DHT22;5571;48.110;-1.706;2023-05-10T09:01:07;14.30;99.90
11035;DHT22;5571;48.110;-1.706;2023-05-10T09:03:34;14.20;99.90
11035;DHT22;5571;48.110;-1.706;2023-05-10T09:06:00;14.20;99.90
11035;DHT22;5571;48.110;-1.706;2023-05-10T09:08:26;14.20;99.90
11035;DHT22;5571;48.110;-1.706;2023-05-10T09:10:53;14.30;99.90
11035;DHT22;5571;48.110;-1.706;2023-05-10T09:13:21;14.30;99.90
11035;DHT22;5571;48.110;-1.706;2023-05-10T09:15:47;14.40;99.90
11035;DHT22;5571;48.110;-1.706;2023-05-10T09:18:13;14.40;99.90
11035;DHT22;5571;48.110;-1.706;2023-05-10T09:20:39;14.30;99.90
11035;DHT22;5571;48.110;-1.706;2023-05-10T09:23:04;14.30;99.90
11035;DHT22;5571;48.110;-1.706;2023-05-10T09:25:31;14.20;99.90
11035;DHT22;5571;48.110;-1.706;2023-05-10T09:27:59;14.20;99.90
11035;DHT22;5571;48.110;-1.706;2023-05-10T09:30:29;14.20;99.90
11035;DHT22;5571;48.110;-1.706;2023-05-10T09:32:57;14.10;99.90
11035;DHT22;5571;48.110;-1.706;2023-05-10T09:35:24;14.00;99.90
11035;DHT22;5571;48.110;-1.706;2023-05-10T09:37:52;14.00;99.90
11035;DHT22;5571;48.110;-1.706;2023-05-10T09:40:23;13.90;99.90
11035;DHT22;5571;48.110;-1.706;2023-05-10T09:45:27;13.90;99.90
11035;DHT22;5571;48.110;-1.706;2023-05-10T09:47:53;14.00;99.90
11035;DHT22;5571;48.110;-1.706;2023-05-10T09:50:20;14.10;99.90
11035;DHT22;5571;48.110;-1.706;2023-05-10T09:55:17;14.30;99.90
11035;DHT22;5571;48.110;-1.706;2023-05-10T09:57:43;14.40;99.90
11035;DHT22;5571;48.110;-1.706;2023-05-10T10:00:09;14.40;99.90
11035;DHT22;5571;48.110;-1.706;2023-05-10T10:02:35;14.40;99.90
11035;DHT22;5571;48.110;-1.706;2023-05-10T10:05:02;14.40;99.90
11035;DHT22;5571;48.110;-1.706;2023-05-10T10:07:31;14.50;99.90
11035;DHT22;5571;48.110;-1.706;2023-05-10T10:09:58;14.60;99.90
11035;DHT22;5571;48.110;-1.706;2023-05-10T10:12:25;14.60;99.90
11035;DHT22;5571;48.110;-1.706;2023-05-10T10:14:51;14.70;99.90
11035;DHT22;5571;48.110;-1.706;2023-05-10T10:17:17;14.80;99.90
11035;DHT22;5571;48.110;-1.706;2023-05-10T10:19:43;15.00;99.90
11035;DHT22;5571;48.110;-1.706;2023-05-10T10:22:10;15.30;99.90
11035;DHT22;5571;48.110;-1.706;2023-05-10T10:24:38;15.30;99.90
11035;DHT22;5571;48.110;-1.706;2023-05-10T10:30:25;15.20;99.90
11035;DHT22;5571;48.110;-1.706;2023-05-10T10:35:38;14.90;99.90
11035;DHT22;5571;48.110;-1.706;2023-05-10T10:38:03;14.70;99.90
11035;DHT22;5571;48.110;-1.706;2023-05-10T10:40:31;14.60;99.90
11035;DHT22;5571;48.110;-1.706;2023-05-10T10:42:57;14.60;99.90
11035;DHT22;5571;48.110;-1.706;2023-05-10T10:45:24;14.60;99.90
11035;DHT22;5571;48.110;-1.706;2023-05-10T10:48:20;14.60;99.90
11035;DHT22;5571;48.110;-1.706;2023-05-10T10:50:46;14.60;99.90
11035;DHT22;5571;48.110;-1.706;2023-05-10T10:53:12;14.70;99.90
11035;DHT22;5571;48.110;-1.706;2023-05-10T10:55:46;14.80;99.90
11035;DHT22;5571;48.110;-1.706;2023-05-10T10:58:29;15.00;99.90
11035;DHT22;5571;48.110;-1.706;2023-05-10T11:01:15;15.20;99.90
11035;DHT22;5571;48.110;-1.706;2023-05-10T11:06:33;15.60;99.90
11035;DHT22;5571;48.110;-1.706;2023-05-10T11:09:09;15.80;99.90
11035;DHT22;5571;48.110;-1.706;2023-05-10T11:11:36;15.90;99.90
11035;DHT22;5571;48.110;-1.706;2023-05-10T11:14:06;16.10;99.90
11035;DHT22;5571;48.110;-1.706;2023-05-10T11:16:42;16.10;99.90
11035;DHT22;5571;48.110;-1.706;2023-05-10T11:19:11;16.00;99.90
11035;DHT22;5571;48.110;-1.706;2023-05-10T11:21:50;15.80;99.90
11035;DHT22;5571;48.110;-1.706;2023-05-10T11:24:22;15.50;99.90
11035;DHT22;5571;48.110;-1.706;2023-05-10T11:26:50;15.20;99.90
11035;DHT22;5571;48.110;-1.706;2023-05-10T11:29:17;15.00;99.90
11035;DHT22;5571;48.110;-1.706;2023-05-10T11:31:44;14.90;99.90
11035;DHT22;5571;48.110;-1.706;2023-05-10T11:34:10;14.60;99.90
11035;DHT22;5571;48.110;-1.706;2023-05-10T11:36:37;14.30;99.90
11035;DHT22;5571;48.110;-1.706;2023-05-10T11:39:03;14.10;99.90
11035;DHT22;5571;48.110;-1.706;2023-05-10T11:41:29;14.00;99.90
11035;DHT22;5571;48.110;-1.706;2023-05-10T11:43:56;14.00;99.90
11035;DHT22;5571;48.110;-1.706;2023-05-10T11:46:25;14.10;99.90
11035;DHT22;5571;48.110;-1.706;2023-05-10T11:48:54;14.60;99.90
11035;DHT22;5571;48.110;-1.706;2023-05-10T11:51:21;15.10;99.90
11035;DHT22;5571;48.110;-1.706;2023-05-10T11:53:47;15.60;99.90
11035;DHT22;5571;48.110;-1.706;2023-05-10T11:56:13;16.10;99.90
11035;DHT22;5571;48.110;-1.706;2023-05-10T11:58:39;16.30;99.90
11035;DHT22;5571;48.110;-1.706;2023-05-10T12:01:07;16.30;99.90
11035;DHT22;5571;48.110;-1.706;2023-05-10T12:03:33;16.30;99.90
11035;DHT22;5571;48.110;-1.706;2023-05-10T12:06:02;16.10;99.90
11035;DHT22;5571;48.110;-1.706;2023-05-10T12:08:29;15.90;99.90
11035;DHT22;5571;48.110;-1.706;2023-05-10T12:11:07;15.70;99.90
11035;DHT22;5571;48.110;-1.706;2023-05-10T12:13:40;15.60;99.90
11035;DHT22;5571;48.110;-1.706;2023-05-10T12:16:16;15.50;99.90
11035;DHT22;5571;48.110;-1.706;2023-05-10T12:18:42;15.30;99.90
11035;DHT22;5571;48.110;-1.706;2023-05-10T12:21:12;15.10;99.90
11035;DHT22;5571;48.110;-1.706;2023-05-10T12:23:39;15.00;99.90
11035;DHT22;5571;48.110;-1.706;2023-05-10T12:26:05;14.80;99.90
11035;DHT22;5571;48.110;-1.706;2023-05-10T12:28:32;14.70;99.90
11035;DHT22;5571;48.110;-1.706;2023-05-10T12:30:59;14.60;99.90
11035;DHT22;5571;48.110;-1.706;2023-05-10T12:33:25;14.50;99.90
11035;DHT22;5571;48.110;-1.706;2023-05-10T12:35:53;14.50;99.90
11035;DHT22;5571;48.110;-1.706;2023-05-10T12:38:29;14.50;99.90
11035;DHT22;5571;48.110;-1.706;2023-05-10T12:40:59;14.50;99.90
11035;DHT22;5571;48.110;-1.706;2023-05-10T12:43:25;14.50;99.90
11035;DHT22;5571;48.110;-1.706;2023-05-10T12:45:50;14.40;99.90
11035;DHT22;5571;48.110;-1.706;2023-05-10T12:48:17;14.40;99.90
11035;DHT22;5571;48.110;-1.706;2023-05-10T12:50:43;14.50;99.90
11035;DHT22;5571;48.110;-1.706;2023-05-10T12:53:09;14.50;99.90
11035;DHT22;5571;48.110;-1.706;2023-05-10T12:55:34;14.70;99.90
11035;DHT22;5571;48.110;-1.706;2023-05-10T12:58:00;14.80;99.90
11035;DHT22;5571;48.110;-1.706;2023-05-10T13:00:26;15.10;99.90
11035;DHT22;5571;48.110;-1.706;2023-05-10T13:02:51;15.40;99.90
11035;DHT22;5571;48.110;-1.706;2023-05-10T13:05:18;15.70;99.90
11035;DHT22;5571;48.110;-1.706;2023-05-10T13:07:44;15.70;99.90
11035;DHT22;5571;48.110;-1.706;2023-05-10T13:10:10;15.80;99.90
11035;DHT22;5571;48.110;-1.706;2023-05-10T13:12:36;15.80;99.90
11035;DHT22;5571;48.110;-1.706;2023-05-10T13:15:02;15.70;99.90
11035;DHT22;5571;48.110;-1.706;2023-05-10T13:17:28;15.70;99.90
11035;DHT22;5571;48.110;-1.706;2023-05-10T13:19:54;15.60;99.90
11035;DHT22;5571;48.110;-1.706;2023-05-10T13:22:20;15.60;99.90
11035;DHT22;5571;48.110;-1.706;2023-05-10T13:24:45;15.50;99.90
11035;DHT22;5571;48.110;-1.706;2023-05-10T13:27:11;15.40;99.90
11035;DHT22;5571;48.110;-1.706;2023-05-10T13:29:36;15.40;99.90
11035;DHT22;5571;48.110;-1.706;2023-05-10T13:32:02;15.30;99.90
11035;DHT22;5571;48.110;-1.706;2023-05-10T13:34:28;15.40;99.90
11035;DHT22;5571;48.110;-1.706;2023-05-10T13:36:53;15.60;99.90
11035;DHT22;5571;48.110;-1.706;2023-05-10T13:39:21;15.60;99.90
11035;DHT22;5571;48.110;-1.706;2023-05-10T13:41:46;15.60;99.90
11035;DHT22;5571;48.110;-1.706;2023-05-10T13:44:13;15.60;99.90
11035;DHT22;5571;48.110;-1.706;2023-05-10T13:46:40;15.30;99.90
11035;DHT22;5571;48.110;-1.706;2023-05-10T13:49:06;14.90;99.90
11035;DHT22;5571;48.110;-1.706;2023-05-10T13:51:33;14.50;99.90
11035;DHT22;5571;48.110;-1.706;2023-05-10T13:53:59;14.20;99.90
11035;DHT22;5571;48.110;-1.706;2023-05-10T13:56:25;13.90;99.90
11035;DHT22;5571;48.110;-1.706;2023-05-10T13:58:50;13.80;99.90
11035;DHT22;5571;48.110;-1.706;2023-05-10T14:01:16;13.80;99.90
11035;DHT22;5571;48.110;-1.706;2023-05-10T14:03:42;13.80;99.90
11035;DHT22;5571;48.110;-1.706;2023-05-10T14:06:08;14.00;99.90
11035;DHT22;5571;48.110;-1.706;2023-05-10T14:08:34;14.10;99.90
11035;DHT22;5571;48.110;-1.706;2023-05-10T14:11:00;14.30;99.90
11035;DHT22;5571;48.110;-1.706;2023-05-10T14:13:25;14.50;99.90
11035;DHT22;5571;48.110;-1.706;2023-05-10T14:15:53;14.70;99.90
11035;DHT22;5571;48.110;-1.706;2023-05-10T14:18:19;14.90;99.90
11035;DHT22;5571;48.110;-1.706;2023-05-10T14:20:44;15.10;99.90
11035;DHT22;5571;48.110;-1.706;2023-05-10T14:23:10;15.20;99.90
11035;DHT22;5571;48.110;-1.706;2023-05-10T14:25:36;15.30;99.90
11035;DHT22;5571;48.110;-1.706;2023-05-10T14:28:01;15.40;99.90
11035;DHT22;5571;48.110;-1.706;2023-05-10T14:30:27;15.40;99.90
11035;DHT22;5571;48.110;-1.706;2023-05-10T14:32:52;15.40;99.90
11035;DHT22;5571;48.110;-1.706;2023-05-10T14:35:19;15.40;99.90
11035;DHT22;5571;48.110;-1.706;2023-05-10T14:37:45;15.40;99.90
11035;DHT22;5571;48.110;-1.706;2023-05-10T14:40:11;15.30;99.90
11035;DHT22;5571;48.110;-1.706;2023-05-10T14:42:37;15.30;99.90
11035;DHT22;5571;48.110;-1.706;2023-05-10T14:45:04;15.30;99.90
11035;DHT22;5571;48.110;-1.706;2023-05-10T14:47:29;15.30;99.90
11035;DHT22;5571;48.110;-1.706;2023-05-10T14:49:55;15.30;99.90
11035;DHT22;5571;48.110;-1.706;2023-05-10T14:52:21;15.20;99.90
11035;DHT22;5571;48.110;-1.706;2023-05-10T14:54:46;15.00;99.90
11035;DHT22;5571;48.110;-1.706;2023-05-10T14:57:12;15.00;99.90
11035;DHT22;5571;48.110;-1.706;2023-05-10T14:59:38;15.00;99.90
11035;DHT22;5571;48.110;-1.706;2023-05-10T15:02:03;15.00;99.90
11035;DHT22;5571;48.110;-1.706;2023-05-10T15:04:29;15.20;99.90
11035;DHT22;5571;48.110;-1.706;2023-05-10T15:06:55;15.40;99.90
11035;DHT22;5571;48.110;-1.706;2023-05-10T15:09:24;15.70;99.90
11035;DHT22;5571;48.110;-1.706;2023-05-10T15:11:50;15.90;99.90
11035;DHT22;5571;48.110;-1.706;2023-05-10T15:14:15;15.90;99.90
11035;DHT22;5571;48.110;-1.706;2023-05-10T15:16:41;16.00;99.90
11035;DHT22;5571;48.110;-1.706;2023-05-10T15:19:07;16.00;99.90
11035;DHT22;5571;48.110;-1.706;2023-05-10T15:21:32;16.00;99.90
11035;DHT22;5571;48.110;-1.706;2023-05-10T15:24:04;16.00;99.90
11035;DHT22;5571;48.110;-1.706;2023-05-10T15:26:30;16.00;99.90
11035;DHT22;5571;48.110;-1.706;2023-05-10T15:28:56;16.00;99.90
11035;DHT22;5571;48.110;-1.706;2023-05-10T15:31:21;15.90;99.90
11035;DHT22;5571;48.110;-1.706;2023-05-10T15:33:47;15.80;99.90
11035;DHT22;5571;48.110;-1.706;2023-05-10T15:36:13;15.70;99.90
11035;DHT22;5571;48.110;-1.706;2023-05-10T15:38:38;15.60;99.90
11035;DHT22;5571;48.110;-1.706;2023-05-10T15:41:04;15.50;99.90
11035;DHT22;5571;48.110;-1.706;2023-05-10T15:43:30;15.40;99.90
11035;DHT22;5571;48.110;-1.706;2023-05-10T15:45:55;15.30;99.90
11035;DHT22;5571;48.110;-1.706;2023-05-10T15:48:21;15.20;99.90
11035;DHT22;5571;48.110;-1.706;2023-05-10T15:50:46;15.20;99.90
11035;DHT22;5571;48.110;-1.706;2023-05-10T15:53:12;15.20;99.90
11035;DHT22;5571;48.110;-1.706;2023-05-10T15:55:38;15.20;99.90
11035;DHT22;5571;48.110;-1.706;2023-05-10T15:58:03;15.20;99.90
11035;DHT22;5571;48.110;-1.706;2023-05-10T16:00:29;15.30;99.90